createdAt,value
2023-03-02T00:01:04.412Z,90.05
2023-03-02T00:04:50.987Z,90.48
2023-03-02T00:08:16.875Z,90.64
2023-03-02T00:12:02.964Z,90.83
2023-03-02T00:15:38.399Z,91.04
2023-03-02T00:18:46.572Z,91.60
2023-03-02T00:22:23.054Z,91.77
2023-03-02T00:25:58.387Z,92.14
2023-03-02T00:29:50.119Z,92.16
2023-03-02T00:33:59.791Z,92.12
2023-03-02T00:38:00.918Z,92.19
2023-03-02T00:41:24.065Z,92.75
2023-03-02T00:45:24.394Z,92.93
2023-03-02T00:49:09.905Z,93.57
2023-03-02T00:52:33.730Z,93.66
2023-03-02T00:55:56.715Z,93.69
2023-03-02T00:59:28.254Z,94.17
2023-03-02T01:03:11.759Z,94.46
2023-03-02T01:11:17.055Z,95.55
2023-03-02T01:14:44.905Z,96.05
2023-03-02T01:18:28.544Z,98.80
2023-03-02T01:22:06.513Z,98.88
2023-03-02T01:25:49.596Z,98.86
2023-03-02T01:29:12.108Z,99.79
2023-03-02T01:32:18.404Z,100.00
2023-03-02T01:35:42.116Z,100.00
2023-03-02T01:39:06.153Z,100.00
2023-03-02T01:42:37.658Z,100.00
2023-03-02T01:46:15.828Z,100.00
2023-03-02T01:50:20.546Z,100.00
2023-03-02T01:53:30.798Z,100.00
2023-03-02T01:56:45.022Z,100.00
2023-03-02T02:00:10.820Z,100.00
2023-03-02T02:03:53.874Z,100.00
2023-03-02T02:07:41.535Z,100.00
2023-03-02T02:11:06.503Z,100.00
2023-03-02T02:14:43.504Z,100.00
2023-03-02T02:18:08.341Z,100.00
2023-03-02T02:22:06.900Z,100.00
2023-03-02T02:25:53.878Z,100.00
2023-03-02T02:29:14.392Z,100.00
2023-03-02T02:32:59.911Z,100.00
2023-03-02T02:36:22.998Z,100.00
2023-03-02T02:39:55.121Z,100.00
2023-03-02T02:42:59.835Z,100.00
2023-03-02T02:46:49.385Z,100.00
2023-03-02T02:49:58.774Z,100.00
2023-03-02T02:53:37.825Z,100.00
2023-03-02T02:57:22.458Z,100.00
2023-03-02T03:01:06.944Z,100.00
2023-03-02T03:05:02.749Z,100.00
2023-03-02T03:08:45.994Z,100.00
2023-03-02T03:12:21.243Z,100.00
2023-03-02T03:15:26.952Z,100.00
2023-03-02T03:18:51.826Z,100.00
2023-03-02T03:22:24.276Z,100.00
2023-03-02T03:26:07.622Z,100.00
2023-03-02T03:29:54.616Z,100.00
2023-03-02T03:33:38.403Z,100.00
2023-03-02T03:37:19.984Z,100.00
2023-03-02T03:41:48.538Z,100.00
2023-03-02T03:49:26.561Z,100.00
2023-03-02T03:52:31.516Z,100.00
2023-03-02T03:56:03.043Z,100.00
2023-03-02T03:59:45.906Z,100.00
2023-03-02T04:03:37.870Z,100.00
2023-03-02T04:07:03.623Z,100.00
2023-03-02T04:10:30.478Z,100.00
2023-03-02T04:13:55.820Z,100.00
2023-03-02T04:17:38.952Z,100.00
2023-03-02T04:21:22.460Z,100.00
2023-03-02T04:25:35.963Z,100.00
2023-03-02T04:29:25.708Z,100.00
2023-03-02T04:33:13.651Z,100.00
2023-03-02T04:36:27.950Z,100.00
2023-03-02T04:40:04.746Z,100.00
2023-03-02T04:43:40.357Z,100.00
2023-03-02T04:47:23.751Z,100.00
2023-03-02T04:51:17.133Z,100.00
2023-03-02T04:55:22.738Z,100.00
2023-03-02T04:58:59.375Z,100.00
2023-03-02T05:02:48.258Z,100.00
2023-03-02T05:06:11.549Z,100.00
2023-03-02T05:09:44.209Z,100.00
2023-03-02T05:13:19.462Z,100.00
2023-03-02T05:16:44.573Z,100.00
2023-03-02T05:20:10.409Z,100.00
2023-03-02T05:23:53.992Z,100.00
2023-03-02T05:27:16.892Z,100.00
2023-03-02T05:30:49.211Z,100.00
2023-03-02T05:34:24.368Z,100.00
2023-03-02T05:38:03.752Z,100.00
2023-03-02T05:41:40.145Z,100.00
2023-03-02T05:45:26.045Z,100.00
2023-03-02T05:48:52.057Z,100.00
2023-03-02T05:52:14.853Z,100.00
2023-03-02T05:56:01.131Z,100.00
2023-03-02T06:03:36.369Z,100.00
2023-03-02T06:11:15.465Z,99.20
2023-03-02T06:19:36.100Z,95.29
2023-03-02T06:23:19.322Z,91.93
2023-03-02T06:26:42.359Z,89.46
2023-03-02T06:30:28.390Z,87.48
2023-03-02T06:33:50.981Z,83.31
2023-03-02T06:36:59.098Z,80.79
2023-03-02T06:40:09.090Z,78.26
2023-03-02T06:43:17.465Z,76.53
2023-03-02T06:46:21.995Z,74.37
2023-03-02T06:49:43.286Z,70.82
2023-03-02T06:52:46.550Z,69.57
2023-03-02T06:55:50.909Z,69.33
2023-03-02T06:58:56.137Z,66.06
2023-03-02T07:02:03.110Z,64.01
2023-03-02T07:05:09.688Z,61.28
2023-03-02T07:08:15.294Z,61.27
2023-03-02T07:11:37.793Z,61.49
2023-03-02T07:14:41.462Z,58.42
2023-03-02T07:17:48.194Z,59.37
2023-03-02T07:21:02.079Z,57.06
2023-03-02T07:24:05.259Z,57.09
2023-03-02T07:27:48.921Z,55.47
2023-03-02T07:31:18.614Z,54.86
2023-03-02T07:34:46.609Z,53.12
2023-03-02T07:38:00.907Z,52.32
2023-03-02T07:41:40.814Z,50.49
2023-03-02T07:44:46.642Z,50.27
2023-03-02T07:48:09.292Z,50.37
2023-03-02T07:51:19.308Z,48.73
2023-03-02T07:54:27.883Z,49.07
2023-03-02T07:58:17.628Z,47.35
2023-03-02T08:01:41.238Z,48.22
2023-03-02T08:05:10.294Z,48.78
2023-03-02T08:08:16.716Z,48.67
2023-03-02T08:11:22.249Z,47.50
2023-03-02T08:14:57.838Z,49.09
2023-03-02T08:18:01.662Z,48.62
2023-03-02T08:21:15.168Z,49.59
2023-03-02T08:24:19.207Z,48.66
2023-03-02T08:27:24.680Z,49.53
2023-03-02T08:30:29.604Z,49.61
2023-03-02T08:33:36.217Z,49.53
2023-03-02T08:36:43.627Z,49.11
2023-03-02T08:40:07.004Z,49.21
2023-03-02T08:43:10.937Z,49.76
2023-03-02T08:46:46.568Z,49.49
2023-03-02T08:49:51.297Z,48.53
2023-03-02T08:52:55.908Z,48.10
2023-03-02T08:56:01.127Z,47.05
2023-03-02T08:59:15.746Z,47.10
2023-03-02T09:02:21.457Z,47.72
2023-03-02T09:05:24.309Z,46.95
2023-03-02T09:08:30.184Z,47.33
2023-03-02T09:11:35.719Z,47.01
2023-03-02T09:14:41.563Z,46.13
2023-03-02T09:17:44.511Z,44.68
2023-03-02T09:20:52.293Z,44.40
2023-03-02T09:23:58.570Z,44.42
2023-03-02T09:27:02.029Z,44.16
2023-03-02T09:30:06.731Z,43.29
2023-03-02T09:33:14.168Z,42.03
2023-03-02T09:36:22.963Z,41.48
2023-03-02T09:39:26.420Z,40.76
2023-03-02T09:42:53.662Z,39.10
2023-03-02T09:46:05.791Z,38.79
2023-03-02T09:49:27.179Z,38.26
2023-03-02T09:52:44.021Z,39.32
2023-03-02T09:56:05.138Z,38.24
2023-03-02T09:59:15.479Z,38.24
2023-03-02T10:02:25.337Z,37.65
2023-03-02T10:05:55.867Z,36.82
2023-03-02T10:08:58.991Z,38.20
2023-03-02T10:12:26.391Z,38.06
2023-03-02T10:15:46.822Z,38.78
2023-03-02T10:19:16.360Z,39.29
2023-03-02T10:22:55.181Z,39.58
2023-03-02T10:26:20.288Z,40.00
2023-03-02T10:29:30.461Z,39.61
2023-03-02T10:33:17.239Z,41.00
2023-03-02T10:36:44.813Z,41.39
2023-03-02T10:40:40.116Z,40.88
2023-03-02T10:44:15.231Z,42.19
2023-03-02T10:47:29.440Z,40.48
2023-03-02T10:50:57.381Z,39.76
2023-03-02T10:54:34.731Z,41.88
2023-03-02T10:58:26.227Z,42.73
2023-03-02T11:01:30.804Z,43.35
2023-03-02T11:05:32.003Z,43.07
2023-03-02T11:08:37.629Z,41.95
2023-03-02T11:12:01.205Z,42.04
2023-03-02T11:15:48.880Z,41.92
2023-03-02T11:19:14.935Z,40.77
2023-03-02T11:22:47.075Z,41.79
2023-03-02T11:25:57.384Z,42.70
2023-03-02T11:33:56.178Z,39.12
2023-03-02T11:37:46.462Z,38.90
2023-03-02T11:41:31.002Z,38.48
2023-03-02T11:45:20.380Z,40.37
2023-03-02T11:49:00.876Z,38.62
2023-03-02T11:52:34.495Z,38.85
2023-03-02T11:56:17.461Z,39.86
2023-03-02T11:59:36.245Z,40.82
2023-03-02T12:03:16.559Z,41.06
2023-03-02T12:06:33.365Z,41.73
2023-03-02T12:10:31.514Z,44.09
2023-03-02T12:13:55.243Z,43.94
2023-03-02T12:17:25.581Z,45.35
2023-03-02T12:20:34.075Z,45.80
2023-03-02T12:24:00.107Z,45.66
2023-03-02T12:27:16.710Z,44.95
2023-03-02T12:30:31.041Z,45.13
2023-03-02T12:33:46.202Z,45.96
2023-03-02T12:37:33.568Z,45.84
2023-03-02T12:41:08.380Z,44.94
2023-03-02T12:44:55.896Z,45.75
2023-03-02T12:48:19.949Z,45.17
2023-03-02T12:51:57.819Z,45.27
2023-03-02T12:55:10.182Z,46.44
2023-03-02T12:58:32.739Z,45.09
2023-03-02T13:01:46.041Z,45.76
2023-03-02T13:05:09.225Z,46.04
2023-03-02T13:08:53.998Z,46.44
2023-03-02T13:19:38.122Z,45.75
2023-03-02T13:22:43.166Z,45.08
2023-03-02T13:26:32.385Z,44.95
2023-03-02T13:29:57.082Z,45.27
2023-03-02T13:33:48.030Z,45.45
2023-03-02T13:37:32.838Z,46.01
2023-03-02T13:40:52.163Z,45.14
2023-03-02T13:43:57.660Z,45.52
2023-03-02T13:47:24.614Z,45.12
2023-03-02T13:50:54.965Z,45.43
2023-03-02T13:54:27.875Z,45.37
2023-03-02T13:58:36.115Z,45.38
2023-03-02T14:02:22.023Z,44.90
2023-03-02T14:05:46.551Z,45.05
2023-03-02T14:09:29.981Z,45.02
2023-03-02T14:13:14.086Z,44.77
2023-03-02T14:16:48.440Z,44.93
2023-03-02T14:20:33.595Z,45.21
2023-03-02T14:24:19.497Z,45.00
2023-03-02T14:27:29.997Z,44.83
2023-03-02T14:30:57.036Z,44.79
2023-03-02T14:34:27.240Z,45.24
2023-03-02T14:37:33.613Z,45.65
2023-03-02T14:41:07.785Z,45.37
2023-03-02T14:44:42.966Z,45.89
2023-03-02T14:48:26.638Z,46.40
2023-03-02T14:51:55.967Z,46.41
2023-03-02T14:55:24.155Z,46.62
2023-03-02T14:58:42.116Z,47.04
2023-03-02T15:02:25.376Z,48.25
2023-03-02T15:06:01.377Z,48.91
2023-03-02T15:09:17.769Z,49.88
2023-03-02T15:12:40.454Z,49.69
2023-03-02T15:16:21.097Z,49.83
2023-03-02T15:19:30.707Z,51.27
2023-03-02T15:22:34.046Z,50.97
2023-03-02T15:26:03.910Z,51.43
2023-03-02T15:29:10.900Z,52.13
2023-03-02T15:32:34.067Z,52.08
2023-03-02T15:35:56.693Z,52.42
2023-03-02T15:39:00.592Z,52.51
2023-03-02T15:42:04.393Z,52.67
2023-03-02T15:45:08.671Z,53.33
2023-03-02T15:48:28.696Z,53.12
2023-03-02T15:52:04.667Z,53.47
2023-03-02T15:55:11.579Z,53.83
2023-03-02T15:58:14.479Z,54.49
2023-03-02T16:01:20.029Z,54.34
2023-03-02T16:04:24.188Z,54.59
2023-03-02T16:07:27.934Z,55.47
2023-03-02T16:10:36.183Z,56.11
2023-03-02T16:13:48.257Z,56.57
2023-03-02T16:17:12.282Z,57.01
2023-03-02T16:20:14.932Z,57.18
2023-03-02T16:23:23.837Z,58.27
2023-03-02T16:26:27.275Z,59.37
2023-03-02T16:29:52.385Z,59.73
2023-03-02T16:33:01.457Z,60.72
2023-03-02T16:36:12.849Z,62.38
2023-03-02T16:39:19.636Z,63.94
2023-03-02T16:42:23.266Z,64.66
2023-03-02T16:45:36.659Z,65.56
2023-03-02T16:48:40.349Z,66.60
2023-03-02T16:51:47.074Z,67.33
2023-03-02T16:54:58.938Z,67.82
2023-03-02T16:58:01.993Z,68.86
2023-03-02T17:01:30.250Z,69.31
2023-03-02T17:04:37.487Z,70.20
2023-03-02T17:08:05.378Z,71.22
2023-03-02T17:11:31.889Z,72.09
2023-03-02T17:15:15.139Z,72.82
2023-03-02T17:18:34.013Z,73.38
2023-03-02T17:21:37.832Z,73.85
2023-03-02T17:24:44.653Z,74.83
2023-03-02T17:27:48.081Z,75.05
2023-03-02T17:30:51.423Z,76.05
2023-03-02T17:33:54.975Z,76.48
2023-03-02T17:37:00.605Z,77.26
2023-03-02T17:40:44.819Z,77.87
2023-03-02T17:44:03.770Z,79.22
2023-03-02T17:47:31.883Z,79.58
2023-03-02T17:51:16.191Z,80.21
2023-03-02T17:54:54.075Z,80.75
2023-03-02T17:58:13.908Z,82.04
2023-03-02T18:01:49.464Z,82.56
2023-03-02T18:05:45.260Z,83.38
2023-03-02T18:09:02.977Z,83.39
2023-03-02T18:12:20.856Z,83.91
2023-03-02T18:16:01.106Z,84.25
2023-03-02T18:19:37.639Z,85.03
2023-03-02T18:23:13.293Z,85.89
2023-03-02T18:34:22.498Z,87.02
2023-03-02T18:38:08.471Z,87.85
2023-03-02T18:41:46.400Z,88.09
2023-03-02T18:45:33.582Z,88.22
2023-03-02T18:49:07.715Z,88.56
2023-03-02T19:04:57.740Z,90.48
2023-03-02T19:08:54.168Z,91.54
2023-03-02T19:12:19.999Z,92.00
2023-03-02T19:16:12.183Z,92.77
2023-03-02T19:19:49.579Z,93.73
2023-03-02T19:23:19.385Z,93.71
2023-03-02T19:26:40.014Z,94.81
2023-03-02T19:30:28.203Z,95.19
2023-03-02T19:37:50.322Z,97.36
2023-03-02T19:41:35.863Z,98.18
2023-03-02T19:44:40.917Z,99.01
2023-03-02T19:48:24.123Z,98.84
2023-03-02T19:51:46.671Z,98.92
2023-03-02T19:55:12.667Z,99.45
2023-03-02T19:58:17.737Z,99.91
2023-03-02T20:01:35.916Z,100.00
2023-03-02T20:05:00.264Z,100.00
2023-03-02T20:08:36.541Z,100.00
2023-03-02T20:12:12.541Z,100.00
2023-03-02T20:15:55.872Z,100.00
2023-03-02T20:19:02.590Z,100.00
2023-03-02T20:22:46.604Z,100.00
2023-03-02T20:26:17.162Z,100.00
2023-03-02T20:29:43.748Z,100.00
2023-03-02T20:33:15.431Z,100.00
2023-03-02T20:36:55.920Z,100.00
2023-03-02T20:40:01.361Z,100.00
2023-03-02T20:43:34.152Z,100.00
2023-03-02T20:47:01.665Z,100.00
2023-03-02T20:50:33.412Z,100.00
2023-03-02T20:58:01.662Z,100.00
2023-03-02T21:01:08.243Z,100.00
2023-03-02T21:04:47.208Z,100.00
2023-03-02T21:08:15.830Z,100.00
2023-03-02T21:12:01.438Z,100.00
2023-03-02T21:15:37.984Z,100.00
2023-03-02T21:19:23.920Z,100.00
2023-03-02T21:22:51.465Z,100.00
2023-03-02T21:25:56.142Z,100.00
2023-03-02T21:29:31.852Z,100.00
2023-03-02T21:33:14.819Z,100.00
2023-03-02T21:36:55.033Z,100.00
2023-03-02T21:40:23.426Z,100.00
2023-03-02T21:43:52.947Z,100.00
2023-03-02T21:47:18.963Z,100.00
2023-03-02T21:50:35.087Z,100.00
2023-03-02T21:54:24.793Z,100.00
2023-03-02T21:58:07.831Z,100.00
2023-03-02T22:01:44.407Z,100.00
2023-03-02T22:05:20.179Z,100.00
2023-03-02T22:09:07.029Z,100.00
2023-03-02T22:12:44.563Z,100.00
2023-03-02T22:16:24.996Z,100.00
2023-03-02T22:19:57.289Z,100.00
2023-03-02T22:23:23.462Z,100.00
2023-03-02T22:27:19.563Z,100.00
2023-03-02T22:30:31.306Z,100.00
2023-03-02T22:34:20.041Z,100.00
2023-03-02T22:38:07.940Z,100.00
2023-03-02T22:41:31.792Z,100.00
2023-03-02T22:45:02.644Z,100.00
2023-03-02T22:48:18.694Z,100.00
2023-03-02T22:51:41.657Z,100.00
2023-03-02T22:55:43.191Z,100.00
2023-03-02T22:59:24.793Z,100.00
2023-03-02T23:02:49.025Z,100.00
2023-03-02T23:06:24.850Z,100.00
2023-03-02T23:09:49.452Z,100.00
2023-03-02T23:13:40.246Z,100.00
2023-03-02T23:17:35.053Z,100.00
2023-03-02T23:21:23.437Z,100.00
2023-03-02T23:24:57.172Z,100.00
2023-03-02T23:28:35.041Z,100.00
2023-03-02T23:32:10.871Z,100.00
2023-03-02T23:35:57.006Z,100.00
2023-03-02T23:39:26.710Z,100.00
2023-03-02T23:42:50.848Z,100.00
2023-03-02T23:46:28.680Z,100.00
2023-03-02T23:50:13.182Z,100.00
2023-03-02T23:53:36.026Z,100.00
2023-03-02T23:57:31.676Z,100.00
